Time;durP1;ratioP1;P1;durP2;ratioP2;P2;SDS_P1;SDS_P2;PMS_P1;PMS_P2;Temp;Humidity;BMP_temperature;BMP_pressure;BME280_temperature;BME280_humidity;BME280_pressure;Samples;Min_cycle;Max_cycle;Signal;HPM_P1;HPM_P2
2023/04/12 00:03:02;;;;;;;1.38;0.90;;;;;;;3.68;100.00;97878.47;15258032;19;20014;-50
2023/04/12 00:08:32;;;;;;;2.33;0.85;;;;;;;3.68;100.00;97881.16;15269174;19;20021;-48
2023/04/12 00:13:57;;;;;;;1.92;0.90;;;;;;;3.70;100.00;97879.16;15270350;19;20364;-49
2023/04/12 00:19:31;;;;;;;1.58;0.70;;;;;;;3.76;100.00;97868.97;15273520;19;20015;-49
2023/04/12 00:24:56;;;;;;;1.77;0.73;;;;;;;3.76;100.00;97860.97;15271098;19;20033;-54
2023/04/12 00:30:22;;;;;;;2.33;0.95;;;;;;;3.69;100.00;97850.88;15261512;19;20018;-53
2023/04/12 00:35:50;;;;;;;2.17;0.90;;;;;;;3.64;100.00;97845.09;15272277;19;20538;-50
2023/04/12 00:41:15;;;;;;;1.88;0.75;;;;;;;3.61;100.00;97832.03;15274064;19;20593;-52
2023/04/12 00:46:41;;;;;;;4.53;0.80;;;;;;;3.63;100.00;97829.25;15239337;19;21485;-50
2023/04/12 00:52:13;;;;;;;2.17;0.77;;;;;;;3.57;100.00;97819.97;15272953;19;20018;-53
2023/04/12 00:57:39;;;;;;;2.05;0.80;;;;;;;3.53;100.00;97815.84;15271072;19;20468;-51
2023/04/12 01:03:04;;;;;;;1.67;0.85;;;;;;;3.51;100.00;97808.00;15270558;19;20018;-50
2023/04/12 01:08:44;;;;;;;2.97;0.90;;;;;;;3.47;100.00;97803.91;15271573;19;20025;-51
2023/04/12 01:14:15;;;;;;;1.92;0.90;;;;;;;3.45;100.00;97805.03;15268449;19;20018;-52
2023/04/12 01:19:57;;;;;;;;;;;;;;;3.38;100.00;97799.38;15259258;19;20021;-47
2023/04/12 01:25:39;;;;;;;1.80;1.00;;;;;;;3.34;100.00;97793.47;15266226;19;19935;-49
2023/04/12 01:31:08;;;;;;;3.40;1.00;;;;;;;3.26;100.00;97773.81;15271182;19;20033;-52
2023/04/12 01:36:36;;;;;;;2.00;1.02;;;;;;;3.24;100.00;97781.91;15267024;19;20047;-51
2023/04/12 01:42:00;;;;;;;2.17;0.88;;;;;;;3.23;100.00;97772.25;15267940;19;20011;-51
2023/04/12 01:47:28;;;;;;;2.05;0.95;;;;;;;3.21;100.00;97755.56;15267435;19;20411;-50
2023/04/12 01:53:11;;;;;;;2.88;0.90;;;;;;;3.23;100.00;97756.28;15265117;19;20624;-50
2023/04/12 01:58:37;;;;;;;2.60;1.15;;;;;;;3.23;100.00;97757.13;15271451;19;20482;-52
2023/04/12 02:04:05;;;;;;;1.73;0.93;;;;;;;3.20;100.00;97754.72;15265330;19;20563;-50
2023/04/12 02:09:30;;;;;;;1.70;1.00;;;;;;;3.22;100.00;97743.94;15272007;19;20393;-52
2023/04/12 02:14:56;;;;;;;1.90;0.90;;;;;;;3.23;100.00;97729.66;15267349;19;20047;-49
2023/04/12 02:20:31;;;;;;;1.55;0.90;;;;;;;3.23;100.00;97717.19;15264955;19;20017;-49
2023/04/12 02:25:56;;;;;;;2.25;0.80;;;;;;;3.26;100.00;97705.44;15262385;19;20017;-48
2023/04/12 02:31:20;;;;;;;2.78;1.00;;;;;;;3.29;100.00;97697.19;15267311;19;20029;-53
2023/04/12 02:36:51;;;;;;;2.17;0.95;;;;;;;3.31;100.00;97697.91;15264334;19;20484;-50
2023/04/12 02:42:15;;;;;;;1.93;0.80;;;;;;;3.28;100.00;97695.50;15261220;19;20018;-48
2023/04/12 02:47:40;;;;;;;2.97;1.00;;;;;;;3.20;100.00;97685.50;15260217;19;20014;-49
2023/04/12 02:53:12;;;;;;;2.20;0.80;;;;;;;3.14;100.00;97667.41;15265137;19;20018;-49
2023/04/12 02:58:55;;;;;;;1.98;0.95;;;;;;;3.12;100.00;97645.41;15259070;19;21068;-52
2023/04/12 03:04:39;;;;;;;1.65;1.00;;;;;;;3.16;100.00;97657.50;15263662;19;20050;-53
2023/04/12 03:10:13;;;;;;;;;;;;;;;3.15;100.00;97647.81;15263144;19;20882;-47
2023/04/12 03:15:55;;;;;;;2.38;1.25;;;;;;;3.21;100.00;97643.78;15263018;19;19927;-46
2023/04/12 03:21:27;;;;;;;1.98;0.82;;;;;;;3.18;100.00;97641.38;15259494;19;20034;-49
2023/04/12 03:26:56;;;;;;;3.45;0.90;;;;;;;3.15;100.00;97646.94;15260867;19;20047;-47
2023/04/12 03:32:22;;;;;;;2.58;1.00;;;;;;;3.16;100.00;97625.56;15257800;19;20018;-49
2023/04/12 03:37:49;;;;;;;4.53;1.10;;;;;;;3.20;100.00;97636.75;15261547;19;20042;-48
2023/04/12 03:43:16;;;;;;;2.30;1.00;;;;;;;3.20;100.00;97632.28;15270452;19;20014;-48
2023/04/12 03:48:41;;;;;;;2.38;1.10;;;;;;;3.20;100.00;97616.28;15280710;19;20022;-47
2023/04/12 03:54:08;;;;;;;2.30;1.00;;;;;;;3.21;100.00;97606.50;15276183;19;20022;-49
2023/04/12 03:59:48;;;;;;;3.03;1.27;;;;;;;3.18;100.00;97596.97;15277011;19;20700;-45
2023/04/12 04:05:27;;;;;;;5.75;1.35;;;;;;;3.19;100.00;97597.81;15275626;19;20022;-52
2023/04/12 04:10:52;;;;;;;3.97;1.20;;;;;;;3.21;100.00;97585.22;15274693;19;20453;-45
2023/04/12 04:16:25;;;;;;;3.25;1.17;;;;;;;3.22;100.00;97579.75;15272982;19;20020;-47
2023/04/12 04:21:52;;;;;;;4.20;1.25;;;;;;;3.22;100.00;97571.75;15278622;19;20467;-46
2023/04/12 04:27:19;;;;;;;6.32;1.20;;;;;;;3.27;100.00;97567.84;15274091;19;20014;-47
2023/04/12 04:32:48;;;;;;;3.83;1.10;;;;;;;3.32;100.00;97561.16;15275017;19;20021;-52
2023/04/12 04:38:14;;;;;;;2.65;0.95;;;;;;;3.38;100.00;97555.25;15279394;19;20038;-49
2023/04/12 04:43:49;;;;;;;2.97;1.13;;;;;;;3.43;100.00;97549.53;15283184;19;20031;-51
2023/04/12 04:49:18;;;;;;;2.55;1.17;;;;;;;3.49;100.00;97541.00;15274053;19;20471;-47
2023/04/12 04:54:48;;;;;;;2.42;1.10;;;;;;;3.54;100.00;97528.09;15272831;19;20081;-45
2023/04/12 05:00:20;;;;;;;2.90;1.25;;;;;;;3.61;100.00;97536.38;15277191;19;20023;-52
2023/04/12 05:05:50;;;;;;;2.88;1.10;;;;;;;3.67;100.00;97533.16;15269361;19;20254;-52
2023/04/12 05:11:16;;;;;;;3.70;1.30;;;;;;;3.73;100.00;97534.44;15277215;19;20057;-48
2023/04/12 05:16:41;;;;;;;2.50;1.15;;;;;;;3.80;100.00;97530.22;15271303;19;20029;-47
2023/04/12 05:22:09;;;;;;;3.60;1.20;;;;;;;3.86;100.00;97531.47;15268641;19;20249;-50
2023/04/12 05:27:34;;;;;;;4.18;1.80;;;;;;;3.95;100.00;97525.28;15264823;19;20357;-50
2023/04/12 05:33:00;;;;;;;2.05;1.48;;;;;;;4.03;100.00;97519.25;15274527;19;20392;-48
2023/04/12 05:38:31;;;;;;;3.30;1.42;;;;;;;4.12;100.00;97507.72;15269878;19;20044;-47
2023/04/12 05:43:57;;;;;;;3.10;1.30;;;;;;;4.24;100.00;97499.56;15265796;19;20021;-46
2023/04/12 05:49:21;;;;;;;2.42;1.10;;;;;;;4.37;100.00;97507.28;15271735;19;20007;-50
2023/04/12 05:54:52;;;;;;;3.35;1.27;;;;;;;4.50;100.00;97504.28;15270863;19;20030;-46
2023/04/12 06:00:18;;;;;;;2.83;1.10;;;;;;;4.62;100.00;97501.28;15272851;19;20362;-50
2023/04/12 06:05:43;;;;;;;3.28;1.35;;;;;;;4.73;100.00;97486.91;15242177;19;20023;-53
2023/04/12 06:11:11;;;;;;;2.53;1.20;;;;;;;4.86;100.00;97475.91;15265701;19;20019;-54
2023/04/12 06:16:37;;;;;;;2.42;1.20;;;;;;;5.02;100.00;97464.56;15261799;19;20018;-51
2023/04/12 06:22:02;;;;;;;2.90;1.38;;;;;;;5.13;100.00;97466.19;15270020;19;20077;-45
2023/04/12 06:27:30;;;;;;;2.72;1.30;;;;;;;5.24;100.00;97444.59;15265456;19;20010;-47
2023/04/12 06:32:55;;;;;;;2.75;1.30;;;;;;;5.35;100.00;97432.03;15268992;19;20476;-47
2023/04/12 06:38:20;;;;;;;3.05;1.20;;;;;;;5.50;100.00;97422.47;15267142;19;20015;-45
2023/04/12 06:43:47;;;;;;;2.45;1.10;;;;;;;5.70;100.00;97415.13;15256527;19;20018;-48
2023/04/12 06:49:12;;;;;;;2.45;1.10;;;;;;;6.04;100.00;97399.34;15265495;19;20010;-46
2023/04/12 06:54:38;;;;;;;4.22;1.33;;;;;;;6.38;100.00;97391.34;15268276;19;20017;-49
2023/04/12 07:00:06;;;;;;;3.78;1.05;;;;;;;6.77;100.00;97368.56;15272091;19;20013;-46
2023/04/12 07:05:30;;;;;;;3.10;1.20;;;;;;;7.13;100.00;97362.09;15264535;19;20014;-50
2023/04/12 07:11:02;;;;;;;2.88;1.10;;;;;;;7.46;100.00;97343.38;15270106;19;20850;-48
2023/04/12 07:16:34;;;;;;;3.15;1.15;;;;;;;7.72;100.00;97333.28;15257689;19;20018;-52
2023/04/12 07:22:06;;;;;;;3.95;1.30;;;;;;;7.97;100.00;97311.78;15269247;19;20480;-48
2023/04/12 07:27:31;;;;;;;3.53;1.20;;;;;;;8.16;100.00;97304.38;15264246;19;20493;-53
2023/04/12 07:32:59;;;;;;;3.05;1.20;;;;;;;8.28;100.00;97300.28;15276707;19;20027;-53
2023/04/12 07:38:36;;;;;;;4.65;1.38;;;;;;;8.44;100.00;97295.84;15267505;19;20021;-46
2023/04/12 07:44:01;;;;;;;3.40;1.13;;;;;;;8.55;100.00;97297.34;15263761;19;20028;-51
2023/04/12 07:49:29;;;;;;;3.35;1.00;;;;;;;8.67;100.00;97295.91;15261698;19;20017;-53
2023/04/12 07:54:54;;;;;;;1.95;1.00;;;;;;;8.78;100.00;97287.47;15262760;19;20043;-52
2023/04/12 08:00:19;;;;;;;3.03;1.00;;;;;;;8.87;100.00;97277.50;15268318;19;20015;-50
2023/04/12 08:05:51;;;;;;;3.42;1.25;;;;;;;9.13;100.00;97262.03;15266038;19;20035;-51
2023/04/12 08:11:16;;;;;;;3.33;1.10;;;;;;;9.28;100.00;97254.84;15268516;19;20090;-49
2023/04/12 08:16:42;;;;;;;2.47;0.90;;;;;;;9.41;100.00;97255.03;15264445;19;20011;-45
2023/04/12 08:22:18;;;;;;;2.65;1.00;;;;;;;9.60;100.00;97249.31;15265619;19;20085;-50
2023/04/12 08:27:44;;;;;;;2.60;1.00;;;;;;;9.73;100.00;97246.81;15276254;19;21007;-45
2023/04/12 08:33:09;;;;;;;4.03;1.13;;;;;;;9.81;100.00;97238.69;15281452;19;20609;-50
2023/04/12 08:38:36;;;;;;;3.97;1.20;;;;;;;9.94;100.00;97232.63;15281799;19;20025;-47
2023/04/12 08:44:04;;;;;;;2.47;0.90;;;;;;;9.98;100.00;97222.31;15274837;19;20035;-47
2023/04/12 08:49:28;;;;;;;4.50;1.05;;;;;;;10.10;100.00;97207.38;15270829;19;20034;-47
2023/04/12 08:54:56;;;;;;;1.80;0.90;;;;;;;10.32;100.00;97205.56;15258898;19;20015;-50
2023/04/12 09:00:29;;;;;;;3.45;1.10;;;;;;;10.44;100.00;97197.84;15265726;19;20036;-46
2023/04/12 09:06:05;;;;;;;3.08;1.10;;;;;;;10.44;100.00;97186.25;15258670;19;20014;-51
2023/04/12 09:12:08;;;;;;;3.20;1.10;;;;;;;10.50;100.00;97173.91;15262503;19;20043;-49
2023/04/12 09:17:39;;;;;;;3.28;1.10;;;;;;;10.60;100.00;97155.56;15258927;19;20019;-50
2023/04/12 09:23:23;;;;;;;3.53;1.20;;;;;;;10.69;100.00;97149.00;15262173;19;20014;-51
2023/04/12 09:29:06;;;;;;;1.87;0.90;;;;;;;10.76;100.00;97136.41;15263883;19;20034;-49
2023/04/12 09:34:57;;;;;;;2.47;0.88;;;;;;;10.88;100.00;97114.34;15259949;19;20015;-52
2023/04/12 09:40:35;;;;;;;3.28;1.00;;;;;;;10.98;100.00;97097.84;15264545;19;20014;-49
2023/04/12 09:46:20;;;;;;;2.78;0.90;;;;;;;11.05;100.00;97102.25;15254577;19;20038;-52
2023/04/12 09:52:18;;;;;;;2.83;0.80;;;;;;;11.26;100.00;97084.31;15263389;19;20074;-48
2023/04/12 09:57:55;;;;;;;2.42;0.90;;;;;;;11.19;100.00;97086.97;15252633;19;20507;-46
2023/04/12 10:03:35;;;;;;;3.03;0.77;;;;;;;11.32;100.00;97067.38;15260925;19;20363;-50
2023/04/12 10:09:10;;;;;;;1.65;0.70;;;;;;;11.31;100.00;97059.47;15255711;19;20015;-52
2023/04/12 10:14:38;;;;;;;3.63;0.80;;;;;;;11.35;100.00;97045.38;15258196;19;20606;-44
2023/04/12 10:20:25;;;;;;;2.67;0.80;;;;;;;11.39;100.00;97040.44;15261864;19;20035;-47
2023/04/12 10:26:04;;;;;;;1.15;0.70;;;;;;;11.43;100.00;97030.06;15255009;19;20035;-45
2023/04/12 10:31:41;;;;;;;1.08;0.60;;;;;;;11.45;100.00;97023.44;15249575;19;20605;-45
2023/04/12 10:37:19;;;;;;;1.45;0.70;;;;;;;11.29;100.00;97035.41;15251103;19;20010;-51
2023/04/12 10:42:44;;;;;;;1.42;0.63;;;;;;;11.16;100.00;97032.66;15255559;19;20953;-48
2023/04/12 10:48:09;;;;;;;1.38;0.47;;;;;;;10.92;100.00;97029.41;15260391;19;20023;-49
2023/04/12 10:53:37;;;;;;;1.20;0.63;;;;;;;10.70;100.00;97020.56;15241740;19;21209;-48
2023/04/12 10:59:09;;;;;;;1.17;0.63;;;;;;;10.48;100.00;97023.28;15239631;19;20014;-45
2023/04/12 11:04:35;;;;;;;1.33;0.65;;;;;;;10.13;100.00;97023.16;15231021;19;20026;-46
2023/04/12 11:10:21;;;;;;;1.40;0.80;;;;;;;9.87;100.00;97020.03;15233702;19;20002;-47
2023/04/12 11:15:47;;;;;;;2.95;0.90;;;;;;;9.78;100.00;97021.19;15233351;19;20109;-46
2023/04/12 11:21:18;;;;;;;1.27;0.60;;;;;;;9.62;100.00;97024.09;15232684;19;20022;-49
2023/04/12 11:26:50;;;;;;;1.77;0.80;;;;;;;9.38;100.00;97028.78;15230950;19;20350;-48
2023/04/12 11:32:19;;;;;;;1.58;0.80;;;;;;;9.30;100.00;97020.84;15236886;19;20341;-51
2023/04/12 11:37:44;;;;;;;1.65;0.80;;;;;;;9.23;100.00;97015.38;15234334;19;20017;-50
2023/04/12 11:43:13;;;;;;;1.42;0.60;;;;;;;9.11;100.00;97017.72;15237712;19;20015;-51
2023/04/12 11:48:39;;;;;;;1.92;0.70;;;;;;;9.09;100.00;97014.38;15232644;19;20333;-46
2023/04/12 11:54:04;;;;;;;1.13;0.60;;;;;;;9.04;100.00;96998.00;15233846;19;20014;-49
2023/04/12 11:59:37;;;;;;;1.55;0.60;;;;;;;9.03;100.00;96996.31;15236879;19;20011;-49
2023/04/12 12:05:03;;;;;;;2.65;0.70;;;;;;;8.98;100.00;96982.63;15234148;19;20036;-46
2023/04/12 12:10:28;;;;;;;1.35;0.60;;;;;;;8.92;100.00;96968.09;15251827;19;20010;-48
2023/04/12 12:16:20;;;;;;;1.52;0.77;;;;;;;8.97;100.00;96957.59;15242705;19;20027;-46
2023/04/12 12:21:51;;;;;;;1.45;0.73;;;;;;;9.04;100.00;96958.53;15266987;19;20377;-49
2023/04/12 12:27:19;;;;;;;1.40;0.67;;;;;;;9.10;100.00;96943.53;15272568;19;20371;-45
2023/04/12 12:32:48;;;;;;;1.33;0.57;;;;;;;9.11;100.00;96939.81;15280411;19;20619;-47
2023/04/12 12:38:14;;;;;;;1.88;0.40;;;;;;;9.09;100.00;96917.69;15274549;19;20373;-45
2023/04/12 12:43:53;;;;;;;0.47;0.40;;;;;;;9.13;100.00;96918.94;15273345;19;20006;-46
2023/04/12 12:49:20;;;;;;;0.68;0.40;;;;;;;9.20;100.00;96908.28;15275537;19;20033;-47
2023/04/12 12:54:45;;;;;;;0.80;0.40;;;;;;;9.32;100.00;96893.31;15266797;19;20018;-50
2023/04/12 13:00:13;;;;;;;0.50;0.30;;;;;;;9.33;100.00;96880.72;15273801;19;20074;-49
2023/04/12 13:05:41;;;;;;;1.48;0.43;;;;;;;9.38;100.00;96883.66;15271419;19;20010;-45
2023/04/12 13:11:06;;;;;;;0.30;0.30;;;;;;;9.41;100.00;96875.22;15272942;19;20024;-52
2023/04/12 13:16:32;;;;;;;0.60;0.40;;;;;;;9.43;100.00;96872.34;15271909;19;20375;-47
2023/04/12 13:22:07;;;;;;;0.70;0.40;;;;;;;9.42;100.00;96863.44;15269409;19;20035;-49
2023/04/12 13:27:31;;;;;;;0.47;0.30;;;;;;;9.43;100.00;96858.88;15270409;19;20074;-50
2023/04/12 13:32:57;;;;;;;0.38;0.30;;;;;;;9.46;100.00;96864.75;15276130;19;20010;-49
2023/04/12 13:38:24;;;;;;;0.70;0.47;;;;;;;9.53;100.00;96859.41;15273945;19;20026;-44
2023/04/12 13:43:49;;;;;;;0.90;0.50;;;;;;;9.69;100.00;96842.19;15264491;19;20006;-44
2023/04/12 13:49:14;;;;;;;1.70;0.40;;;;;;;9.99;100.00;96832.06;15264256;19;20025;-48
2023/04/12 13:54:42;;;;;;;0.60;0.40;;;;;;;10.28;100.00;96840.09;15266171;19;20011;-46
2023/04/12 14:00:09;;;;;;;0.68;0.35;;;;;;;10.54;100.00;96834.03;15270560;19;20026;-45
2023/04/12 14:05:34;;;;;;;0.57;0.43;;;;;;;10.48;100.00;96813.28;15266620;19;20046;-51
2023/04/12 14:11:04;;;;;;;0.70;0.70;;;;;;;10.46;100.00;96808.09;15269160;19;20022;-46
2023/04/12 14:16:29;;;;;;;0.68;0.68;;;;;;;10.44;100.00;96809.34;15259668;19;20020;-47
2023/04/12 14:22:01;;;;;;;0.63;0.60;;;;;;;10.45;100.00;96792.16;15263792;19;20018;-49
2023/04/12 14:27:28;;;;;;;0.40;0.35;;;;;;;10.45;100.00;96797.56;15259597;19;20029;-48
2023/04/12 14:33:00;;;;;;;0.75;0.50;;;;;;;10.47;100.00;96796.31;15275482;19;20082;-78
2023/04/12 14:38:25;;;;;;;0.37;0.37;;;;;;;10.53;100.00;96799.22;15283352;19;20557;-78
2023/04/12 14:43:52;;;;;;;0.30;0.30;;;;;;;10.52;100.00;96787.63;15279384;19;20028;-78
2023/04/12 14:49:17;;;;;;;0.30;0.25;;;;;;;10.59;100.00;96772.31;15268150;19;20018;-76
2023/04/12 14:54:41;;;;;;;2.05;0.32;;;;;;;10.71;100.00;96767.19;15269643;19;20410;-78
2023/04/12 15:00:12;;;;;;;0.38;0.30;;;;;;;10.77;100.00;96766.38;15276073;19;20057;-76
2023/04/12 15:05:36;;;;;;;0.30;0.30;;;;;;;10.76;100.00;96756.63;15275680;19;20053;-78
2023/04/12 15:11:01;;;;;;;0.93;0.40;;;;;;;10.87;100.00;96760.59;15278015;19;20066;-78
2023/04/12 15:16:28;;;;;;;0.30;0.30;;;;;;;10.81;100.00;96747.09;15276824;19;20014;-78
2023/04/12 15:21:54;;;;;;;0.57;0.30;;;;;;;10.81;100.00;96736.34;15281750;19;20014;-79
2023/04/12 15:27:20;;;;;;;0.52;0.40;;;;;;;10.93;100.00;96732.00;15312731;19;20002;-79
2023/04/12 15:32:47;;;;;;;0.28;0.25;;;;;;;11.39;100.00;96733.06;15307958;19;20019;-79
2023/04/12 15:38:12;;;;;;;0.28;0.28;;;;;;;11.47;100.00;96724.75;15272902;19;20423;-78
2023/04/12 15:43:43;;;;;;;0.70;0.40;;;;;;;11.49;100.00;96719.16;15284070;19;20441;-78
2023/04/12 15:49:11;;;;;;;0.20;0.20;;;;;;;11.39;100.00;96719.59;15279963;19;20022;-79
2023/04/12 15:54:40;;;;;;;0.25;0.25;;;;;;;11.36;100.00;96701.13;15282552;19;20082;-79
2023/04/12 16:00:19;;;;;;;0.60;0.40;;;;;;;11.31;100.00;96692.81;15285508;19;20021;-79
2023/04/12 16:05:46;;;;;;;0.20;0.20;;;;;;;11.26;100.00;96701.53;15286507;19;20010;-79
2023/04/12 16:11:11;;;;;;;0.25;0.25;;;;;;;11.22;100.00;96703.00;15285088;19;20053;-79
2023/04/12 16:16:38;;;;;;;0.30;0.30;;;;;;;11.19;100.00;96692.63;15287772;19;20006;-79
2023/04/12 16:22:06;;;;;;;0.20;0.20;;;;;;;11.13;100.00;96694.28;15284703;19;20093;-80
2023/04/12 16:27:32;;;;;;;0.30;0.30;;;;;;;11.08;100.00;96689.53;15278627;19;20322;-80
2023/04/12 16:32:57;;;;;;;0.57;0.40;;;;;;;11.05;100.00;96687.25;15280181;19;20374;-79
2023/04/12 16:38:24;;;;;;;0.60;0.22;;;;;;;11.01;100.00;96695.94;15288027;19;20508;-79
2023/04/12 16:43:52;;;;;;;0.20;0.20;;;;;;;11.02;100.00;96687.66;15291554;19;20043;-81
2023/04/12 16:49:17;;;;;;;0.40;0.40;;;;;;;10.96;100.00;96696.56;15281610;19;20038;-78
2023/04/12 16:54:44;;;;;;;1.95;0.30;;;;;;;10.98;100.00;96697.19;15283470;19;20007;-79
2023/04/12 17:00:27;;;;;;;0.40;0.40;;;;;;;10.97;100.00;96698.22;15283007;19;20018;-78
2023/04/12 17:05:53;;;;;;;0.40;0.40;;;;;;;10.95;100.00;96678.75;15287106;19;20018;-78
2023/04/12 17:11:21;;;;;;;0.70;0.70;;;;;;;10.92;100.00;96681.84;15282106;19;20019;-78
2023/04/12 17:16:46;;;;;;;0.47;0.40;;;;;;;10.86;100.00;96674.59;15282688;19;20014;-80
2023/04/12 17:22:11;;;;;;;0.90;0.60;;;;;;;10.83;100.00;96665.03;15281189;19;20415;-82
2023/04/12 17:27:38;;;;;;;0.52;0.52;;;;;;;10.83;100.00;96675.00;15280768;19;20014;-81
2023/04/12 17:33:10;;;;;;;0.60;0.50;;;;;;;10.77;100.00;96682.88;15286317;19;20029;-82
2023/04/12 17:38:36;;;;;;;0.55;0.40;;;;;;;10.77;100.00;96680.16;15287033;19;20018;-82
2023/04/12 17:44:04;;;;;;;0.50;0.50;;;;;;;10.70;100.00;96692.81;15286575;19;20577;-81
2023/04/12 17:49:31;;;;;;;0.77;0.60;;;;;;;10.61;100.00;96704.81;15283190;19;20627;-83
2023/04/12 17:54:55;;;;;;;1.00;0.90;;;;;;;10.57;100.00;96703.56;15282503;19;20057;-81
2023/04/12 18:00:25;;;;;;;1.42;1.02;;;;;;;10.53;100.00;96710.38;15279922;19;20033;-85
2023/04/12 18:05:52;;;;;;;1.50;0.80;;;;;;;10.44;100.00;96721.31;15289295;19;20021;-86
2023/04/12 18:11:17;;;;;;;2.63;0.70;;;;;;;10.36;100.00;96736.78;15303204;19;20018;-81
2023/04/12 18:16:45;;;;;;;1.10;0.85;;;;;;;10.27;100.00;96747.75;15295928;19;20365;-81
2023/04/12 18:22:11;;;;;;;0.85;0.80;;;;;;;10.22;100.00;96758.28;15280325;19;20010;-79
2023/04/12 18:27:36;;;;;;;1.10;1.00;;;;;;;10.16;100.00;96751.84;15281358;19;20021;-81
2023/04/12 18:33:10;;;;;;;1.10;1.00;;;;;;;10.10;100.00;96747.25;15273397;19;20010;-81
2023/04/12 18:38:35;;;;;;;1.08;0.90;;;;;;;10.09;100.00;96753.66;15285054;19;20031;-85
2023/04/12 18:44:00;;;;;;;1.40;1.30;;;;;;;10.10;100.00;96755.31;15286368;19;20032;-82
2023/04/12 18:49:27;;;;;;;1.77;1.40;;;;;;;10.08;100.00;96762.75;14774711;19;10000568;-81
2023/04/12 18:54:56;;;;;;;1.67;0.93;;;;;;;10.08;100.00;96759.25;15317021;19;20254;-81
2023/04/12 19:00:22;;;;;;;1.17;1.08;;;;;;;10.01;100.00;96759.22;15316572;19;20006;-88
2023/04/12 19:05:50;;;;;;;1.50;1.00;;;;;;;9.95;100.00;96770.75;15271881;19;20798;-81
2023/04/12 19:11:16;;;;;;;1.48;1.10;;;;;;;9.91;100.00;96770.31;15269745;19;20022;-78
2023/04/12 19:16:40;;;;;;;1.25;1.10;;;;;;;9.85;100.00;96782.69;15266940;19;20013;-78
2023/04/12 19:22:08;;;;;;;1.48;1.15;;;;;;;9.88;100.00;96784.16;15267870;19;20752;-78
2023/04/12 19:27:33;;;;;;;1.33;1.20;;;;;;;9.85;100.00;96788.09;15275026;19;20038;-77
2023/04/12 19:33:06;;;;;;;1.95;1.30;;;;;;;9.81;100.00;96781.47;15266823;19;20059;-77
2023/04/12 19:38:34;;;;;;;1.80;1.45;;;;;;;9.70;100.00;96803.50;15268110;19;20021;-78
2023/04/12 19:43:59;;;;;;;1.75;1.60;;;;;;;9.64;100.00;96807.78;15268109;19;20017;-81
2023/04/12 19:49:24;;;;;;;2.10;1.80;;;;;;;9.61;100.00;96835.09;15267393;19;20006;-78
2023/04/12 19:54:55;;;;;;;1.77;1.63;;;;;;;9.63;100.00;96843.78;15272544;19;20016;-78
2023/04/12 20:00:21;;;;;;;1.50;1.40;;;;;;;9.51;100.00;96864.16;15281828;19;20007;-78
2023/04/12 20:05:49;;;;;;;2.45;1.30;;;;;;;9.46;100.00;96880.88;15282876;19;20025;-79
2023/04/12 20:11:17;;;;;;;2.45;1.50;;;;;;;9.41;100.00;96896.72;15271336;19;20019;-80
2023/04/12 20:16:44;;;;;;;0.73;0.70;;;;;;;9.40;100.00;96847.53;15270443;19;20014;-80
2023/04/12 20:22:09;;;;;;;0.68;0.68;;;;;;;9.31;100.00;96823.66;15271654;19;20477;-78
2023/04/12 20:27:36;;;;;;;2.85;0.50;;;;;;;9.35;100.00;96827.63;15286218;19;20006;-78
2023/04/12 20:33:08;;;;;;;0.38;0.28;;;;;;;9.24;100.00;96832.47;15279195;19;20049;-80
2023/04/12 20:38:33;;;;;;;1.03;0.20;;;;;;;9.23;100.00;96840.72;15277732;19;20070;-76
2023/04/12 20:44:00;;;;;;;0.52;0.20;;;;;;;9.21;100.00;96819.44;15273420;19;20098;-80
2023/04/12 20:49:26;;;;;;;0.30;0.22;;;;;;;9.20;100.00;96817.78;15276496;19;20026;-78
2023/04/12 20:54:52;;;;;;;1.50;0.38;;;;;;;9.10;100.00;96826.13;15290033;19;20014;-77
2023/04/12 21:00:28;;;;;;;0.40;0.40;;;;;;;9.07;100.00;96828.38;15286669;19;20059;-81
2023/04/12 21:06:00;;;;;;;1.35;0.30;;;;;;;8.96;100.00;96818.97;15264048;19;20013;-49
2023/04/12 21:11:26;;;;;;;1.10;0.25;;;;;;;8.96;100.00;96812.78;15267099;19;20010;-46
2023/04/12 21:16:53;;;;;;;0.52;0.20;;;;;;;8.91;100.00;96819.53;15261886;19;20029;-45
2023/04/12 21:22:18;;;;;;;0.57;0.22;;;;;;;8.80;100.00;96830.78;15266945;19;20794;-44
2023/04/12 21:27:43;;;;;;;0.25;0.20;;;;;;;8.73;100.00;96838.75;15269435;19;20376;-44
2023/04/12 21:33:12;;;;;;;0.22;0.22;;;;;;;8.64;100.00;96829.97;15272217;19;20026;-46
2023/04/12 21:38:36;;;;;;;0.25;0.10;;;;;;;8.52;100.00;96820.78;15268461;19;20017;-46
2023/04/12 21:44:01;;;;;;;1.80;0.30;;;;;;;8.12;100.00;96885.41;15270956;19;20021;-45
2023/04/12 21:49:28;;;;;;;0.10;0.10;;;;;;;8.00;100.00;96919.03;15263930;19;20021;-44
2023/04/12 21:54:54;;;;;;;0.30;0.20;;;;;;;7.66;100.00;96897.06;15267596;19;20014;-43
2023/04/12 22:00:22;;;;;;;0.28;0.20;;;;;;;7.57;100.00;96903.53;15266081;19;20010;-43
2023/04/12 22:05:58;;;;;;;0.30;0.30;;;;;;;7.34;100.00;96899.00;15265343;19;20029;-43
2023/04/12 22:11:23;;;;;;;0.20;0.20;;;;;;;7.31;100.00;96874.38;15265672;19;20015;-43
2023/04/12 22:16:48;;;;;;;0.35;0.30;;;;;;;7.21;100.00;96883.50;15265312;19;20022;-43
2023/04/12 22:22:16;;;;;;;0.28;0.20;;;;;;;7.19;100.00;96884.69;15260383;19;20013;-44
2023/04/12 22:27:45;;;;;;;0.38;0.30;;;;;;;7.11;100.00;96907.00;15265003;19;20456;-43
2023/04/12 22:33:12;;;;;;;0.68;0.40;;;;;;;7.05;100.00;96897.84;15267857;19;20019;-43
2023/04/12 22:38:40;;;;;;;1.05;0.40;;;;;;;6.93;100.00;96912.63;15266632;19;20027;-43
2023/04/12 22:44:07;;;;;;;0.45;0.20;;;;;;;7.01;100.00;96919.78;15266417;19;20364;-43
2023/04/12 22:49:35;;;;;;;0.47;0.10;;;;;;;6.99;100.00;96917.31;15262306;19;20013;-44
2023/04/12 22:55:03;;;;;;;0.35;0.20;;;;;;;6.82;100.00;96921.06;15264021;19;20014;-43
2023/04/12 23:00:29;;;;;;;0.22;0.20;;;;;;;6.81;100.00;96917.56;15269943;19;20016;-43
2023/04/12 23:06:00;;;;;;;0.63;0.20;;;;;;;6.70;100.00;96939.34;15261837;19;20040;-43
2023/04/12 23:11:29;;;;;;;0.40;0.30;;;;;;;6.63;100.00;96940.03;15263082;19;20021;-44
2023/04/12 23:16:55;;;;;;;0.65;0.35;;;;;;;6.58;100.00;96950.44;15264681;19;20491;-43
2023/04/12 23:28:16;;;;;;;;;;;;;;;6.64;100.00;96956.94;15259941;19;20018;-42
2023/04/12 23:33:41;;;;;;;0.30;0.30;;;;;;;6.60;100.00;96960.94;15262726;19;20351;-43
2023/04/12 23:39:07;;;;;;;1.67;0.20;;;;;;;6.70;100.00;96983.00;15260499;19;20014;-43
2023/04/12 23:44:35;;;;;;;0.50;0.32;;;;;;;6.57;100.00;96980.88;15262738;19;20086;-43
2023/04/12 23:50:00;;;;;;;0.45;0.38;;;;;;;6.53;100.00;96976.00;15261170;19;20011;-43
2023/04/12 23:55:26;;;;;;;0.70;0.30;;;;;;;6.41;100.00;96968.34;15253069;19;20019;-44
